Time;durP1;ratioP1;P1;durP2;ratioP2;P2;SDS_P1;SDS_P2;PMS_P1;PMS_P2;Temp;Humidity;BMP_temperature;BMP_pressure;BME280_temperature;BME280_humidity;BME280_pressure;Samples;Min_cycle;Max_cycle;Signal;HPM_P1;HPM_P2
2023/09/19 00:00:12;;;;;;;2.90;0.90;;;;;;;17.20;100.00;150383.78;4932825;29;20219;-56
2023/09/19 00:02:39;;;;;;;3.90;1.13;;;;;;;17.32;100.00;150411.31;4930979;28;22383;-56
2023/09/19 00:05:07;;;;;;;2.20;0.83;;;;;;;17.19;100.00;150381.28;4933790;29;20242;-55
2023/09/19 00:07:36;;;;;;;1.60;0.80;;;;;;;17.21;100.00;150386.28;4931578;28;20542;-56
2023/09/19 00:10:04;;;;;;;1.90;0.70;;;;;;;17.22;100.00;150388.78;4934080;28;20293;-55
2023/09/19 00:12:31;;;;;;;2.03;0.80;;;;;;;17.27;100.00;150400.06;4930977;28;20337;-55
2023/09/19 00:14:59;;;;;;;2.70;0.70;;;;;;;17.22;100.00;150387.56;4933948;28;20325;-56
2023/09/19 00:17:26;;;;;;;3.80;0.70;;;;;;;17.32;100.00;150411.31;4931108;28;20235;-55
2023/09/19 00:19:53;;;;;;;1.43;0.83;;;;;;;17.33;100.00;150415.09;4933758;28;20583;-55
2023/09/19 00:22:20;;;;;;;1.77;0.87;;;;;;;17.33;100.00;150413.81;4932965;28;20234;-55
2023/09/19 00:24:47;;;;;;;2.13;0.80;;;;;;;17.28;100.00;150402.56;4934224;28;20237;-56
2023/09/19 00:27:13;;;;;;;1.67;0.80;;;;;;;17.33;100.00;150413.81;4934382;28;20596;-55
2023/09/19 00:29:40;;;;;;;2.20;0.63;;;;;;;17.30;100.00;150407.56;4932040;29;20240;-55
2023/09/19 00:32:08;;;;;;;1.60;0.80;;;;;;;17.25;100.00;150395.06;4932402;29;20608;-55
2023/09/19 00:34:36;;;;;;;4.30;0.60;;;;;;;17.23;100.00;150391.28;4943345;28;20609;-55
2023/09/19 00:37:03;;;;;;;3.03;0.67;;;;;;;17.21;100.00;150385.06;4931956;28;20231;-57
2023/09/19 00:39:31;;;;;;;2.10;0.60;;;;;;;17.27;98.87;150400.06;4928986;29;20587;-56
2023/09/19 00:41:58;;;;;;;1.90;0.57;;;;;;;17.30;100.00;150407.56;4933159;28;20265;-57
2023/09/19 00:44:24;;;;;;;1.13;0.57;;;;;;;17.25;100.00;150396.28;4921519;29;20235;-57
2023/09/19 00:46:51;;;;;;;1.83;0.70;;;;;;;17.18;100.00;150377.56;4948097;28;20232;-57
2023/09/19 00:49:20;;;;;;;2.53;0.60;;;;;;;17.26;100.00;150398.78;4938396;29;20323;-56
2023/09/19 00:51:48;;;;;;;2.30;0.60;;;;;;;17.05;100.00;150347.53;4932390;28;20330;-56
2023/09/19 00:54:18;;;;;;;1.13;0.70;;;;;;;17.15;100.00;150370.06;4931366;29;20329;-56
2023/09/19 00:56:45;;;;;;;2.10;0.60;;;;;;;17.11;100.00;150361.28;4932015;28;20270;-55
2023/09/19 00:59:12;;;;;;;1.03;0.67;;;;;;;17.09;100.00;150357.53;4947829;28;20235;-56
2023/09/19 01:01:40;;;;;;;1.00;0.50;;;;;;;17.10;100.00;150358.78;4930785;28;23778;-55
2023/09/19 01:04:07;;;;;;;2.10;0.60;;;;;;;17.07;100.00;150352.53;4928744;29;20238;-56
2023/09/19 01:06:34;;;;;;;1.10;0.80;;;;;;;17.25;99.48;150396.28;4942343;28;20223;-56
2023/09/19 01:09:03;;;;;;;3.57;0.60;;;;;;;17.23;99.41;150391.28;4930055;29;20250;-56
2023/09/19 01:11:39;;;;;;;2.80;1.10;;;;;;;17.18;100.00;150378.78;4927227;28;20714;-55
2023/09/19 01:14:18;;;;;;;2.47;0.63;;;;;;;17.13;100.00;150366.28;4929664;28;20231;-56
2023/09/19 01:16:51;;;;;;;0.97;0.50;;;;;;;17.00;100.00;150335.03;4941993;28;20241;-56
2023/09/19 01:19:46;;;;;;;2.80;0.60;;;;;;;16.95;100.00;150322.47;4931261;28;20291;-55
2023/09/19 01:22:21;;;;;;;2.20;0.70;;;;;;;16.96;100.00;150326.25;4938775;28;20244;-56
2023/09/19 01:25:20;;;;;;;3.63;0.57;;;;;;;17.00;100.00;150333.75;4925861;29;20250;-56
2023/09/19 01:28:14;;;;;;;2.03;0.63;;;;;;;16.96;100.00;150324.97;4927876;28;20233;-56
2023/09/19 01:30:44;;;;;;;3.37;0.80;;;;;;;16.97;100.00;150327.53;4916117;29;20240;-55
2023/09/19 01:33:11;;;;;;;4.50;0.77;;;;;;;17.17;100.00;150376.28;4944049;28;20228;-55
2023/09/19 01:35:39;;;;;;;3.23;0.60;;;;;;;17.09;100.00;150357.53;4933527;28;20228;-55
2023/09/19 01:38:06;;;;;;;2.27;0.70;;;;;;;17.09;100.00;150356.28;4929809;29;20575;-55
2023/09/19 01:40:38;;;;;;;2.00;0.60;;;;;;;17.16;99.80;150372.56;4940142;28;20794;-56
2023/09/19 01:43:13;;;;;;;0.60;0.60;;;;;;;17.14;100.00;150368.78;4942415;28;20225;-56
2023/09/19 01:45:51;;;;;;;2.97;0.80;;;;;;;17.33;99.06;150413.81;4926669;28;20266;-55
2023/09/19 01:48:26;;;;;;;1.73;0.77;;;;;;;17.33;99.61;150413.81;4928579;28;20240;-55
2023/09/19 01:51:02;;;;;;;2.70;0.83;;;;;;;17.34;98.12;150416.31;4925870;29;20244;-55
2023/09/19 01:53:34;;;;;;;2.60;0.70;;;;;;;17.26;99.96;150398.78;4925217;28;20227;-56
2023/09/19 01:56:03;;;;;;;3.70;0.90;;;;;;;17.23;99.92;150391.28;4928574;29;20231;-56
2023/09/19 01:58:35;;;;;;;3.23;0.80;;;;;;;17.34;99.02;150416.31;4940776;28;20598;-54
2023/09/19 02:01:05;;;;;;;3.97;0.93;;;;;;;17.25;99.32;150395.06;4929734;29;20726;-55
2023/09/19 02:03:34;;;;;;;2.07;0.80;;;;;;;17.22;100.00;150387.56;4928285;29;20568;-56
2023/09/19 02:06:03;;;;;;;4.17;0.70;;;;;;;17.21;99.14;150385.06;4930968;29;20232;-55
2023/09/19 02:08:31;;;;;;;1.70;0.77;;;;;;;17.26;99.07;150397.56;4941381;28;20240;-56
2023/09/19 02:11:00;;;;;;;1.73;0.70;;;;;;;17.30;99.21;150406.31;4918065;29;20238;-57
2023/09/19 02:13:27;;;;;;;3.47;0.87;;;;;;;17.30;100.00;150407.56;4924966;29;20253;-56
2023/09/19 02:16:04;;;;;;;1.47;0.70;;;;;;;17.32;99.22;150411.31;4929174;28;20319;-56
2023/09/19 02:18:30;;;;;;;2.10;0.80;;;;;;;17.43;99.38;150437.59;4940970;28;20220;-55
2023/09/19 02:21:00;;;;;;;6.37;1.40;;;;;;;17.46;97.78;150445.09;4929227;29;20271;-56
2023/09/19 02:23:26;;;;;;;2.73;0.80;;;;;;;17.35;99.11;150418.81;4926559;28;20228;-54
2023/09/19 02:26:19;;;;;;;4.93;1.07;;;;;;;17.44;99.00;150440.09;4930188;29;20234;-55
2023/09/19 02:28:45;;;;;;;4.97;1.37;;;;;;;17.34;99.66;150416.31;4925644;29;20235;-55
2023/09/19 02:31:13;;;;;;;3.03;1.10;;;;;;;17.35;98.96;150418.81;4927739;28;20449;-56
2023/09/19 02:33:40;;;;;;;2.13;0.90;;;;;;;17.41;97.25;150433.81;4925882;28;20520;-56
2023/09/19 02:36:07;;;;;;;2.83;1.00;;;;;;;17.45;98.63;150442.59;4918836;28;20589;-56
2023/09/19 02:38:34;;;;;;;7.80;1.00;;;;;;;17.43;99.35;150437.59;4926250;28;20223;-56
2023/09/19 02:41:01;;;;;;;4.93;1.27;;;;;;;17.34;99.98;150417.56;4927477;29;20232;-56
2023/09/19 02:43:53;;;;;;;3.43;1.20;;;;;;;17.51;99.89;150458.84;4926129;28;20222;-56
2023/09/19 02:46:21;;;;;;;2.07;1.03;;;;;;;17.39;99.32;150428.81;4924594;28;20316;-54
2023/09/19 02:48:48;;;;;;;1.63;0.90;;;;;;;17.41;100.00;150435.09;4944066;28;20247;-55
2023/09/19 02:51:15;;;;;;;3.17;1.27;;;;;;;17.41;99.94;150435.09;4931955;29;20251;-55
2023/09/19 02:53:42;;;;;;;3.57;0.77;;;;;;;17.34;100.00;150416.31;4923866;29;20266;-56
2023/09/19 02:56:11;;;;;;;2.23;0.63;;;;;;;17.40;100.00;150432.59;4928607;28;20286;-56
2023/09/19 02:58:39;;;;;;;2.73;1.10;;;;;;;17.36;100.00;150421.31;4925190;29;20230;-56
2023/09/19 03:01:11;;;;;;;7.20;2.80;;;;;;;17.35;100.00;150418.81;4943073;28;20231;-53
2023/09/19 03:03:40;;;;;;;2.53;0.80;;;;;;;17.37;100.00;150425.09;4914553;28;20224;-56
2023/09/19 03:06:08;;;;;;;2.73;0.97;;;;;;;17.32;100.00;150411.31;4928449;29;20321;-56
2023/09/19 03:08:36;;;;;;;1.60;0.80;;;;;;;17.31;100.00;150410.06;4935266;28;20239;-55
2023/09/19 03:11:05;;;;;;;3.07;0.80;;;;;;;17.29;100.00;150403.78;4919551;29;20278;-56
2023/09/19 03:13:32;;;;;;;1.93;0.97;;;;;;;17.24;100.00;150393.78;4925910;29;20223;-57
2023/09/19 03:16:00;;;;;;;1.77;0.90;;;;;;;17.14;100.00;150367.56;4941742;28;20234;-56
2023/09/19 03:18:28;;;;;;;1.87;1.10;;;;;;;17.17;100.00;150376.28;4940881;28;20226;-56
2023/09/19 03:21:01;;;;;;;3.63;0.90;;;;;;;17.15;100.00;150370.06;4940126;28;20313;-57
2023/09/19 03:23:29;;;;;;;5.17;1.13;;;;;;;17.08;100.00;150353.78;4940471;28;20243;-56
2023/09/19 03:26:00;;;;;;;4.60;1.00;;;;;;;17.07;100.00;150351.25;4926387;29;20227;-56
2023/09/19 03:28:27;;;;;;;2.83;1.20;;;;;;;17.05;100.00;150347.53;4935686;28;20226;-57
2023/09/19 03:31:01;;;;;;;1.97;1.00;;;;;;;17.03;100.00;150341.25;5128333;23;20307;-56
2023/09/19 03:33:31;;;;;;;2.17;0.93;;;;;;;17.03;100.00;150342.53;4939655;28;20230;-56
2023/09/19 03:36:04;;;;;;;2.33;1.20;;;;;;;16.96;100.00;150326.25;4943234;28;20288;-57
2023/09/19 03:38:32;;;;;;;3.20;0.97;;;;;;;16.89;100.00;150308.75;4937116;28;20314;-57
2023/09/19 03:41:00;;;;;;;4.07;1.20;;;;;;;16.86;100.00;150299.97;4940686;28;20236;-57
2023/09/19 03:43:27;;;;;;;2.33;1.20;;;;;;;16.74;100.00;150271.22;4906127;29;20322;-56
2023/09/19 03:46:03;;;;;;;2.23;1.23;;;;;;;16.71;100.00;150263.72;4914701;29;20227;-54
2023/09/19 03:48:31;;;;;;;2.37;1.70;;;;;;;16.55;100.00;150226.22;4908136;29;20228;-55
2023/09/19 03:51:02;;;;;;;4.30;1.30;;;;;;;16.49;100.00;150211.22;4911085;29;20235;-56
2023/09/19 03:53:28;;;;;;;3.53;1.03;;;;;;;16.49;100.00;150212.44;4911454;29;20240;-56
2023/09/19 03:56:01;;;;;;;3.97;1.20;;;;;;;16.55;100.00;150226.22;4909575;29;20722;-55
2023/09/19 03:58:29;;;;;;;1.93;1.00;;;;;;;16.49;100.00;150211.22;4908718;28;20283;-56
2023/09/19 04:01:00;;;;;;;2.07;1.10;;;;;;;16.54;100.00;150223.72;4904551;29;20249;-56
2023/09/19 04:03:34;;;;;;;3.17;1.00;;;;;;;16.43;100.00;150196.22;4912764;28;20240;-56
2023/09/19 04:06:02;;;;;;;4.83;1.10;;;;;;;16.44;100.00;150199.94;4899508;29;20321;-55
2023/09/19 04:08:29;;;;;;;2.30;1.10;;;;;;;16.49;100.00;150212.44;4896244;29;20240;-55
2023/09/19 04:11:00;;;;;;;2.43;1.23;;;;;;;16.39;100.00;150187.50;4914372;29;20234;-56
2023/09/19 04:13:27;;;;;;;2.30;1.10;;;;;;;16.42;100.00;150195.00;4901413;29;20577;-54
2023/09/19 04:16:00;;;;;;;2.67;1.20;;;;;;;16.35;100.00;150177.50;4913318;29;20327;-55
2023/09/19 04:18:26;;;;;;;3.13;1.30;;;;;;;16.35;100.00;150178.72;4894203;28;20220;-56
2023/09/19 04:21:19;;;;;;;2.37;1.20;;;;;;;16.36;100.00;150181.22;4908653;28;20242;-56
2023/09/19 04:23:46;;;;;;;1.80;1.10;;;;;;;16.30;100.00;150166.22;4904576;29;20253;-55
2023/09/19 04:26:13;;;;;;;3.13;1.23;;;;;;;16.26;100.00;150155.00;4920200;29;20296;-56
2023/09/19 04:28:40;;;;;;;3.10;1.30;;;;;;;16.28;100.00;150161.22;4915066;28;20239;-56
2023/09/19 04:31:08;;;;;;;1.57;1.10;;;;;;;16.36;100.00;150180.00;4913315;28;20237;-56
2023/09/19 04:33:35;;;;;;;4.90;1.57;;;;;;;16.00;100.00;150093.72;4910369;28;20241;-56
2023/09/19 04:36:03;;;;;;;13.80;2.67;;;;;;;15.84;100.00;150054.94;4909876;28;20267;-55
2023/09/19 04:38:31;;;;;;;8.77;2.03;;;;;;;15.41;100.00;149950.00;4909711;28;20235;-56
2023/09/19 04:41:00;;;;;;;6.03;1.70;;;;;;;15.34;100.00;149933.78;4910699;28;20358;-56
2023/09/19 04:43:31;;;;;;;8.43;2.10;;;;;;;15.33;100.00;149931.28;4910370;28;20236;-55
2023/09/19 04:46:00;;;;;;;7.33;1.90;;;;;;;15.22;100.00;149905.06;4908660;29;20606;-56
2023/09/19 04:48:28;;;;;;;3.97;1.97;;;;;;;15.29;100.00;149921.28;4909752;29;20720;-56
2023/09/19 04:50:59;;;;;;;6.10;2.17;;;;;;;15.29;100.00;149921.28;4917201;29;20248;-55
2023/09/19 04:53:27;;;;;;;5.43;1.93;;;;;;;15.33;100.00;149932.53;4914856;28;20324;-55
2023/09/19 04:56:03;;;;;;;6.93;2.17;;;;;;;15.34;100.00;149933.78;4918831;28;20277;-56
2023/09/19 04:58:30;;;;;;;4.00;1.70;;;;;;;15.36;100.00;149938.78;4906353;28;20321;-56
2023/09/19 05:01:02;;;;;;;4.10;2.00;;;;;;;15.41;100.00;149950.00;4910605;29;20233;-56
2023/09/19 05:03:29;;;;;;;5.57;1.60;;;;;;;15.38;100.00;149942.50;4910384;28;20234;-57
2023/09/19 05:06:00;;;;;;;6.30;2.13;;;;;;;15.36;100.00;149938.78;4916018;28;20235;-56
2023/09/19 05:08:27;;;;;;;7.43;2.23;;;;;;;15.33;100.00;149931.28;4911351;29;20255;-57
2023/09/19 05:11:04;;;;;;;4.53;1.67;;;;;;;15.31;100.00;149927.53;4912366;29;20238;-54
2023/09/19 05:13:31;;;;;;;4.57;2.07;;;;;;;15.39;100.00;149946.25;4913044;29;20273;-56
2023/09/19 05:16:01;;;;;;;4.83;2.43;;;;;;;15.40;100.00;149947.50;4911030;28;20721;-56
2023/09/19 05:18:28;;;;;;;5.33;2.00;;;;;;;15.41;100.00;149951.25;4914110;28;20236;-56
2023/09/19 05:21:03;;;;;;;6.43;2.20;;;;;;;15.34;100.00;149933.78;4908457;29;20235;-56
2023/09/19 05:23:29;;;;;;;6.53;2.63;;;;;;;15.38;100.00;149943.75;4910680;28;20246;-56
2023/09/19 05:26:00;;;;;;;7.57;2.20;;;;;;;15.36;100.00;149938.78;4913459;28;20238;-55
2023/09/19 05:28:29;;;;;;;5.20;2.40;;;;;;;15.38;100.00;149943.75;4907950;29;20255;-55
2023/09/19 05:31:01;;;;;;;7.40;1.93;;;;;;;15.38;100.00;149943.75;4910525;29;20245;-54
2023/09/19 05:33:28;;;;;;;4.30;1.97;;;;;;;15.43;100.00;149956.25;4910636;29;20229;-54
2023/09/19 05:36:00;;;;;;;4.23;1.93;;;;;;;15.47;100.00;149966.25;4913531;28;20259;-54
2023/09/19 05:38:27;;;;;;;4.60;1.80;;;;;;;15.54;100.00;149982.47;4912985;28;20230;-55
2023/09/19 05:41:02;;;;;;;2.80;2.00;;;;;;;15.61;100.00;149998.75;4913913;28;20246;-56
2023/09/19 05:43:30;;;;;;;7.17;2.30;;;;;;;15.76;100.00;150036.22;4916447;28;20218;-55
2023/09/19 05:46:00;;;;;;;4.07;2.03;;;;;;;15.78;100.00;150039.94;4918161;29;20243;-56
2023/09/19 05:48:27;;;;;;;7.53;2.20;;;;;;;15.79;100.00;150042.44;4914678;28;20737;-56
2023/09/19 05:51:00;;;;;;;8.10;2.30;;;;;;;15.83;100.00;150051.22;4916889;28;20581;-55
2023/09/19 05:53:28;;;;;;;3.77;1.70;;;;;;;15.93;100.00;150076.22;4910719;28;20237;-56
2023/09/19 05:56:00;;;;;;;2.77;1.67;;;;;;;15.89;100.00;150067.50;4912484;28;20602;-56
2023/09/19 05:58:27;;;;;;;7.70;1.70;;;;;;;15.88;100.00;150065.00;4908257;29;20220;-56
2023/09/19 06:01:01;;;;;;;2.30;1.43;;;;;;;15.96;100.00;150083.72;4906308;29;20233;-56
2023/09/19 06:03:29;;;;;;;2.80;1.60;;;;;;;16.00;100.00;150092.50;4912819;28;20561;-54
2023/09/19 06:06:00;;;;;;;7.20;1.53;;;;;;;16.02;100.00;150098.72;4914557;28;20246;-56
2023/09/19 06:08:28;;;;;;;2.83;1.53;;;;;;;16.09;100.00;150115.00;4910361;28;20703;-56
2023/09/19 06:11:00;;;;;;;3.37;1.20;;;;;;;16.12;100.00;150121.22;4912963;28;20235;-55
2023/09/19 06:13:29;;;;;;;4.93;1.50;;;;;;;16.09;100.00;150115.00;4912765;28;20245;-55
2023/09/19 06:16:04;;;;;;;1.90;1.30;;;;;;;16.21;100.00;150143.72;4913700;29;20245;-55
2023/09/19 06:18:33;;;;;;;5.27;1.63;;;;;;;16.20;100.00;150142.50;4914595;28;20297;-56
2023/09/19 06:21:00;;;;;;;4.27;1.60;;;;;;;16.21;100.00;150145.00;4908256;29;20385;-56
2023/09/19 06:23:29;;;;;;;8.90;1.40;;;;;;;16.22;100.00;150146.22;4905836;28;20239;-54
2023/09/19 06:25:59;;;;;;;3.87;1.20;;;;;;;16.23;100.00;150148.72;4925482;28;20297;-56
2023/09/19 06:28:27;;;;;;;8.53;1.30;;;;;;;16.20;100.00;150142.50;4908205;28;20218;-56
2023/09/19 06:31:03;;;;;;;1.50;1.20;;;;;;;16.21;100.00;150143.72;4915358;28;20239;-54
2023/09/19 06:33:31;;;;;;;4.90;1.30;;;;;;;16.18;100.00;150136.22;4908469;28;20236;-56
2023/09/19 06:36:00;;;;;;;3.23;1.50;;;;;;;16.13;100.00;150123.72;4912245;29;20382;-56
2023/09/19 06:38:26;;;;;;;4.77;1.10;;;;;;;16.02;100.00;150098.72;4909867;28;20712;-56
2023/09/19 06:41:19;;;;;;;3.07;1.00;;;;;;;16.12;100.00;150122.50;4912851;28;20259;-56
2023/09/19 06:43:45;;;;;;;4.60;1.20;;;;;;;16.13;100.00;150123.72;4906092;29;20232;-55
2023/09/19 06:46:13;;;;;;;2.20;1.37;;;;;;;16.06;100.00;150107.50;4911666;29;20233;-55
2023/09/19 06:48:40;;;;;;;3.70;1.30;;;;;;;16.09;100.00;150115.00;4905131;28;20244;-55
2023/09/19 06:51:08;;;;;;;3.10;1.20;;;;;;;16.13;100.00;150123.72;4916375;28;20274;-56
2023/09/19 06:53:35;;;;;;;4.20;1.33;;;;;;;16.15;100.00;150130.00;4906222;28;20227;-55
2023/09/19 06:56:02;;;;;;;2.07;1.07;;;;;;;16.20;100.00;150141.22;4912324;28;20232;-56
2023/09/19 06:58:28;;;;;;;4.43;1.30;;;;;;;16.29;100.00;150163.72;4907484;29;20234;-56
2023/09/19 07:01:00;;;;;;;2.77;1.30;;;;;;;16.32;100.00;150170.00;4911114;28;21031;-56
2023/09/19 07:03:28;;;;;;;3.77;1.20;;;;;;;16.41;100.00;150192.50;4912683;29;20234;-57
2023/09/19 07:06:00;;;;;;;4.63;1.27;;;;;;;16.40;100.00;150188.72;4914375;29;20290;-57
2023/09/19 07:08:28;;;;;;;3.67;1.10;;;;;;;16.50;100.00;150213.72;4909653;29;20242;-57
2023/09/19 07:11:00;;;;;;;3.60;1.40;;;;;;;16.52;100.00;150219.94;4913689;28;20432;-57
2023/09/19 07:13:27;;;;;;;3.47;1.20;;;;;;;16.51;100.00;150217.44;4910451;28;20583;-56
2023/09/19 07:16:00;;;;;;;4.57;1.20;;;;;;;16.57;100.00;150231.22;4906701;28;20236;-56
2023/09/19 07:18:28;;;;;;;3.10;1.10;;;;;;;16.62;100.00;150243.72;4901097;29;20248;-54
2023/09/19 07:21:04;;;;;;;1.57;0.90;;;;;;;16.60;100.00;150238.72;4915007;29;20251;-56
2023/09/19 07:23:34;;;;;;;3.73;0.97;;;;;;;16.60;100.00;150237.44;4909909;29;20822;-57
2023/09/19 07:26:01;;;;;;;3.13;1.17;;;;;;;16.73;100.00;150268.75;4909766;29;20234;-56
2023/09/19 07:28:28;;;;;;;8.47;1.03;;;;;;;16.44;100.00;150198.72;4912416;29;20230;-55
2023/09/19 07:31:03;;;;;;;5.10;1.33;;;;;;;16.73;100.00;150269.97;4909619;28;20245;-56
2023/09/19 07:33:31;;;;;;;4.67;1.03;;;;;;;16.65;100.00;150251.22;4910077;29;20637;-56
2023/09/19 07:36:00;;;;;;;4.33;0.97;;;;;;;16.66;100.00;150252.47;4914035;29;20707;-55
2023/09/19 07:38:27;;;;;;;2.50;1.13;;;;;;;16.81;100.00;150288.75;4899652;29;20228;-55
2023/09/19 07:41:18;;;;;;;2.87;1.00;;;;;;;16.92;100.00;150316.25;4906757;28;20265;-56
2023/09/19 07:43:45;;;;;;;3.83;1.00;;;;;;;16.95;100.00;150323.75;4908281;28;20231;-56
2023/09/19 07:46:11;;;;;;;4.13;0.97;;;;;;;16.95;100.00;150322.47;4909829;28;20228;-56
2023/09/19 07:48:40;;;;;;;1.67;0.90;;;;;;;16.99;100.00;150332.53;4903737;29;20242;-56
2023/09/19 07:51:09;;;;;;;4.57;1.00;;;;;;;17.13;99.42;150366.28;4907623;29;20252;-56
2023/09/19 07:53:37;;;;;;;2.27;1.13;;;;;;;16.96;98.80;150326.25;4904902;29;20248;-56
2023/09/19 07:56:05;;;;;;;4.17;1.00;;;;;;;17.13;98.75;150366.28;4910202;28;20233;-56
2023/09/19 07:58:33;;;;;;;3.50;1.00;;;;;;;17.21;97.43;150385.06;4903734;28;20228;-56
2023/09/19 08:01:04;;;;;;;3.17;1.10;;;;;;;17.20;97.50;150383.78;4915355;28;20306;-57
2023/09/19 08:03:31;;;;;;;2.67;1.00;;;;;;;17.11;97.16;150361.28;4909539;28;20254;-57
2023/09/19 08:06:01;;;;;;;2.80;1.00;;;;;;;17.18;94.38;150378.78;4903703;29;20238;-57
2023/09/19 08:08:28;;;;;;;2.73;1.10;;;;;;;17.31;97.10;150408.81;4901931;28;20696;-57
2023/09/19 08:11:01;;;;;;;2.50;1.10;;;;;;;17.41;95.22;150435.09;4911615;28;20274;-59
2023/09/19 08:13:28;;;;;;;3.40;1.17;;;;;;;17.53;94.12;150462.56;4908883;28;20231;-57
2023/09/19 08:16:00;;;;;;;3.23;1.10;;;;;;;17.56;88.51;150471.34;4907653;29;20889;-55
2023/09/19 08:18:30;;;;;;;2.70;1.10;;;;;;;17.55;93.75;150468.84;4907176;28;20224;-56
2023/09/19 08:21:01;;;;;;;1.53;1.07;;;;;;;17.57;95.44;150472.56;4910135;29;20232;-56
2023/09/19 08:23:28;;;;;;;5.00;1.17;;;;;;;17.82;95.20;150532.63;4908122;29;20589;-56
2023/09/19 08:26:03;;;;;;;3.63;1.10;;;;;;;17.93;93.55;150558.94;4913697;29;20230;-56
2023/09/19 08:28:29;;;;;;;2.00;1.00;;;;;;;18.14;90.62;150610.25;4908604;28;20796;-56
2023/09/19 08:31:04;;;;;;;3.37;1.50;;;;;;;18.44;87.15;150682.84;4908130;29;20588;-56
2023/09/19 08:33:31;;;;;;;3.70;1.30;;;;;;;18.36;87.97;150662.81;4904071;28;20223;-56
2023/09/19 08:36:01;;;;;;;4.83;1.20;;;;;;;18.18;87.62;150620.25;4916496;28;20232;-57
2023/09/19 08:38:29;;;;;;;3.43;1.20;;;;;;;18.22;89.87;150630.28;4908120;28;20231;-56
2023/09/19 08:41:01;;;;;;;5.70;1.60;;;;;;;18.65;87.03;150734.13;4915290;28;20309;-56
2023/09/19 08:43:28;;;;;;;2.70;1.20;;;;;;;18.21;88.92;150626.50;4907117;28;20220;-56
2023/09/19 08:46:10;;;;;;;3.30;1.20;;;;;;;18.54;87.67;150707.88;4909267;29;20236;-56
2023/09/19 08:48:40;;;;;;;2.90;1.03;;;;;;;18.37;90.20;150666.56;4911607;28;20227;-57
2023/09/19 08:51:11;;;;;;;3.93;1.13;;;;;;;18.46;89.60;150686.56;4909682;29;20810;-57
2023/09/19 08:53:46;;;;;;;3.53;1.20;;;;;;;18.55;86.53;150710.34;4908318;28;20641;-57
2023/09/19 08:56:14;;;;;;;2.53;1.23;;;;;;;18.41;85.69;150676.56;4914128;28;20227;-57
2023/09/19 08:58:46;;;;;;;3.87;1.20;;;;;;;18.49;85.37;150694.09;4913444;29;20251;-57
2023/09/19 09:01:16;;;;;;;5.93;1.20;;;;;;;18.30;85.43;150649.03;4921310;29;20248;-57
2023/09/19 09:03:46;;;;;;;5.47;1.50;;;;;;;18.32;83.82;150652.81;4909313;28;21015;-57
2023/09/19 09:06:15;;;;;;;3.07;1.20;;;;;;;18.29;84.83;150646.53;4917690;28;20238;-58
2023/09/19 09:08:42;;;;;;;3.30;1.20;;;;;;;18.39;84.29;150671.56;4908306;28;20232;-58
2023/09/19 09:11:09;;;;;;;4.60;1.70;;;;;;;18.56;82.23;150711.59;4907046;28;20229;-56
2023/09/19 09:13:37;;;;;;;7.13;1.43;;;;;;;18.53;83.94;150705.38;4907394;29;20216;-56
2023/09/19 09:16:03;;;;;;;2.73;1.10;;;;;;;18.66;81.00;150735.38;4914602;28;20241;-55
2023/09/19 09:18:30;;;;;;;2.93;1.40;;;;;;;18.71;80.09;150747.88;4907832;29;20586;-56
2023/09/19 09:21:00;;;;;;;4.13;1.27;;;;;;;18.80;78.70;150769.19;4908279;29;20235;-54
2023/09/19 09:23:29;;;;;;;4.43;1.50;;;;;;;18.66;78.93;150735.38;4905635;29;20215;-55
2023/09/19 09:26:02;;;;;;;7.27;1.47;;;;;;;18.67;76.71;150739.16;4912872;28;20265;-55
2023/09/19 09:28:30;;;;;;;4.30;1.23;;;;;;;18.67;77.62;150737.88;4910473;29;20588;-56
2023/09/19 09:31:02;;;;;;;3.03;1.27;;;;;;;18.74;78.46;150755.41;4911452;28;20674;-57
2023/09/19 09:33:29;;;;;;;6.10;1.33;;;;;;;19.07;79.24;150834.34;4906708;29;20266;-57
2023/09/19 09:36:02;;;;;;;2.67;1.20;;;;;;;18.85;78.58;150781.72;4908702;29;20231;-56
2023/09/19 09:38:43;;;;;;;2.83;1.07;;;;;;;19.11;75.79;150845.59;4907890;28;20334;-57
2023/09/19 09:41:15;;;;;;;2.03;1.10;;;;;;;19.52;78.64;150943.28;4914741;29;20316;-54
2023/09/19 09:43:44;;;;;;;2.60;1.10;;;;;;;19.72;70.51;150992.09;4908453;29;20315;-55
2023/09/19 09:49:25;;;;;;;5.37;1.40;;;;;;;19.06;71.67;150831.84;4900867;28;20233;-55
2023/09/19 09:51:59;;;;;;;3.83;1.30;;;;;;;19.45;73.61;150926.97;4906784;28;20244;-55
2023/09/19 09:54:34;;;;;;;3.93;1.30;;;;;;;19.31;71.63;150894.41;4907879;29;20710;-54
2023/09/19 09:57:05;;;;;;;2.43;1.10;;;;;;;19.34;70.66;150900.69;4909323;29;20236;-55
2023/09/19 09:59:55;;;;;;;3.80;1.30;;;;;;;18.98;70.22;150814.31;4912668;28;20316;-55
2023/09/19 10:02:28;;;;;;;2.90;1.27;;;;;;;19.02;70.50;150824.31;4897548;29;20779;-55
2023/09/19 10:05:14;;;;;;;2.23;1.00;;;;;;;19.19;71.48;150864.34;4914170;28;20230;-55
2023/09/19 10:07:47;;;;;;;4.23;0.90;;;;;;;19.26;68.83;150880.66;4907169;28;20236;-55
2023/09/19 10:10:21;;;;;;;2.57;1.23;;;;;;;19.64;69.18;150972.06;4911369;29;20736;-55
2023/09/19 10:12:49;;;;;;;4.83;1.37;;;;;;;19.58;66.01;150958.28;4909395;29;20752;-54
2023/09/19 10:15:20;;;;;;;4.23;1.03;;;;;;;19.44;67.38;150925.72;4910096;28;20272;-56
2023/09/19 10:17:47;;;;;;;3.83;1.40;;;;;;;19.65;64.84;150974.56;4913140;28;20650;-56
2023/09/19 10:20:24;;;;;;;3.27;1.30;;;;;;;19.83;66.44;151019.66;4912463;29;20250;-55
2023/09/19 10:22:57;;;;;;;2.37;0.83;;;;;;;19.32;66.87;150896.91;4907303;28;20243;-54
2023/09/19 10:25:28;;;;;;;2.33;0.90;;;;;;;19.68;67.54;150982.06;4908408;28;20331;-55
2023/09/19 10:27:57;;;;;;;4.87;1.50;;;;;;;19.35;69.54;150901.91;4909006;28;20224;-56
2023/09/19 10:30:25;;;;;;;2.40;1.00;;;;;;;19.50;67.55;150938.25;4899076;28;20258;-56
2023/09/19 10:33:00;;;;;;;3.47;1.20;;;;;;;19.38;67.37;150909.44;4907086;28;20240;-55
2023/09/19 10:35:28;;;;;;;3.20;1.13;;;;;;;19.37;68.58;150906.94;4905697;28;20647;-56
2023/09/19 10:37:57;;;;;;;3.63;1.07;;;;;;;19.53;69.01;150947.00;4909016;28;20261;-57
2023/09/19 10:40:30;;;;;;;3.67;1.03;;;;;;;19.76;67.70;151003.34;4907247;29;20232;-55
2023/09/19 10:43:02;;;;;;;7.13;1.20;;;;;;;19.48;69.12;150934.47;4915104;28;21008;-55
2023/09/19 10:45:31;;;;;;;4.10;1.03;;;;;;;19.63;68.19;150970.78;4900674;28;20243;-55
2023/09/19 10:47:58;;;;;;;3.37;1.13;;;;;;;19.57;68.09;150957.03;4910751;28;20264;-55
2023/09/19 10:50:26;;;;;;;3.37;1.13;;;;;;;19.44;67.82;150924.47;4909973;28;20244;-55
2023/09/19 10:53:00;;;;;;;3.90;1.13;;;;;;;19.39;67.58;150913.22;4915690;28;20268;-57
2023/09/19 10:55:29;;;;;;;5.33;1.03;;;;;;;19.32;68.94;150895.69;4911748;28;20310;-55
2023/09/19 10:57:57;;;;;;;2.73;1.00;;;;;;;19.23;70.52;150873.13;4913674;28;20227;-56
2023/09/19 11:00:27;;;;;;;2.43;1.20;;;;;;;19.43;69.45;150921.94;4909926;28;20287;-55
2023/09/19 11:03:20;;;;;;;2.37;1.00;;;;;;;19.36;66.06;150904.41;4909506;28;20645;-55
2023/09/19 11:06:09;;;;;;;3.60;1.00;;;;;;;19.38;65.05;150909.44;4904436;29;20233;-56
2023/09/19 11:09:10;;;;;;;4.90;1.27;;;;;;;19.37;68.82;150906.94;4906092;28;20308;-55
2023/09/19 11:11:50;;;;;;;3.23;1.10;;;;;;;19.48;66.90;150934.47;4907915;28;20234;-55
2023/09/19 11:14:40;;;;;;;2.13;1.07;;;;;;;19.50;64.11;150939.47;4909251;29;20243;-55
2023/09/19 11:17:36;;;;;;;2.77;1.10;;;;;;;19.24;64.31;150876.88;4908822;28;20232;-55
2023/09/19 11:23:26;;;;;;;2.30;1.00;;;;;;;19.71;63.38;150989.59;4903972;29;20241;-54
2023/09/19 11:26:43;;;;;;;2.30;0.87;;;;;;;19.78;60.35;151007.13;4908904;29;20237;-56
2023/09/19 11:29:26;;;;;;;1.47;0.70;;;;;;;19.73;62.72;150994.59;4906717;29;20312;-56
2023/09/19 11:31:57;;;;;;;1.57;0.90;;;;;;;19.83;62.29;151018.38;4909963;28;20288;-55
2023/09/19 11:34:47;;;;;;;2.27;0.90;;;;;;;19.99;59.63;151058.50;4902517;29;20248;-56
2023/09/19 11:38:16;;;;;;;3.20;1.03;;;;;;;20.11;61.40;151087.34;4906028;29;20241;-56
2023/09/19 11:41:12;;;;;;;3.87;1.00;;;;;;;19.96;59.89;151051.00;4905572;29;20693;-55
2023/09/19 11:43:41;;;;;;;3.77;0.90;;;;;;;19.99;61.78;151057.28;4902769;29;20221;-56